sensor_id;sensor_type;location;lat;lon;timestamp;P1;durP1;ratioP1;P2;durP2;ratioP2
66212;SDS011;53015;50.046;8.238;2023-03-23T00:00:00;2.83;;;1.10;;
66212;SDS011;53015;50.046;8.238;2023-03-23T00:02:27;3.60;;;1.10;;
66212;SDS011;53015;50.046;8.238;2023-03-23T00:04:55;2.03;;;0.80;;
66212;SDS011;53015;50.046;8.238;2023-03-23T00:07:21;2.45;;;0.90;;
66212;SDS011;53015;50.046;8.238;2023-03-23T00:09:48;1.27;;;0.70;;
66212;SDS011;53015;50.046;8.238;2023-03-23T00:12:14;1.15;;;0.75;;
66212;SDS011;53015;50.046;8.238;2023-03-23T00:14:40;3.13;;;0.90;;
66212;SDS011;53015;50.046;8.238;2023-03-23T00:17:06;2.67;;;0.82;;
66212;SDS011;53015;50.046;8.238;2023-03-23T00:19:32;2.10;;;0.60;;
66212;SDS011;53015;50.046;8.238;2023-03-23T00:21:58;2.70;;;0.82;;
66212;SDS011;53015;50.046;8.238;2023-03-23T00:24:24;4.07;;;1.08;;
66212;SDS011;53015;50.046;8.238;2023-03-23T00:26:49;1.13;;;0.90;;
66212;SDS011;53015;50.046;8.238;2023-03-23T00:29:16;1.30;;;0.70;;
66212;SDS011;53015;50.046;8.238;2023-03-23T00:31:43;3.95;;;0.90;;
66212;SDS011;53015;50.046;8.238;2023-03-23T00:34:09;2.95;;;1.00;;
66212;SDS011;53015;50.046;8.238;2023-03-23T00:36:35;2.83;;;1.30;;
66212;SDS011;53015;50.046;8.238;2023-03-23T00:39:02;3.60;;;1.50;;
66212;SDS011;53015;50.046;8.238;2023-03-23T00:41:28;3.25;;;1.50;;
66212;SDS011;53015;50.046;8.238;2023-03-23T00:43:54;3.33;;;1.30;;
66212;SDS011;53015;50.046;8.238;2023-03-23T00:46:21;3.63;;;1.38;;
66212;SDS011;53015;50.046;8.238;2023-03-23T00:48:46;3.65;;;1.40;;
66212;SDS011;53015;50.046;8.238;2023-03-23T00:51:12;3.55;;;1.58;;
66212;SDS011;53015;50.046;8.238;2023-03-23T00:53:38;3.80;;;1.55;;
66212;SDS011;53015;50.046;8.238;2023-03-23T00:56:05;3.88;;;1.70;;
66212;SDS011;53015;50.046;8.238;2023-03-23T00:58:31;4.28;;;1.67;;
66212;SDS011;53015;50.046;8.238;2023-03-23T01:00:57;4.45;;;1.70;;
66212;SDS011;53015;50.046;8.238;2023-03-23T01:03:22;3.92;;;1.90;;
66212;SDS011;53015;50.046;8.238;2023-03-23T01:05:48;3.65;;;1.80;;
66212;SDS011;53015;50.046;8.238;2023-03-23T01:08:14;5.00;;;1.67;;
66212;SDS011;53015;50.046;8.238;2023-03-23T01:10:39;7.00;;;1.83;;
66212;SDS011;53015;50.046;8.238;2023-03-23T01:13:06;4.13;;;1.80;;
66212;SDS011;53015;50.046;8.238;2023-03-23T01:15:32;3.50;;;1.90;;
66212;SDS011;53015;50.046;8.238;2023-03-23T01:17:58;5.30;;;1.67;;
66212;SDS011;53015;50.046;8.238;2023-03-23T01:20:23;3.28;;;1.58;;
66212;SDS011;53015;50.046;8.238;2023-03-23T01:22:50;4.13;;;1.80;;
66212;SDS011;53015;50.046;8.238;2023-03-23T01:25:15;4.90;;;1.90;;
66212;SDS011;53015;50.046;8.238;2023-03-23T01:27:41;5.22;;;2.10;;
66212;SDS011;53015;50.046;8.238;2023-03-23T01:30:08;7.25;;;2.40;;
66212;SDS011;53015;50.046;8.238;2023-03-23T01:32:36;7.00;;;1.85;;
66212;SDS011;53015;50.046;8.238;2023-03-23T01:35:02;4.78;;;1.70;;
66212;SDS011;53015;50.046;8.238;2023-03-23T01:37:27;2.47;;;1.65;;
66212;SDS011;53015;50.046;8.238;2023-03-23T01:39:53;6.60;;;1.90;;
66212;SDS011;53015;50.046;8.238;2023-03-23T01:42:20;3.88;;;2.15;;
66212;SDS011;53015;50.046;8.238;2023-03-23T01:45:21;4.32;;;1.80;;
66212;SDS011;53015;50.046;8.238;2023-03-23T01:47:49;6.82;;;1.60;;
66212;SDS011;53015;50.046;8.238;2023-03-23T01:50:17;4.28;;;1.85;;
66212;SDS011;53015;50.046;8.238;2023-03-23T01:52:43;2.67;;;1.55;;
66212;SDS011;53015;50.046;8.238;2023-03-23T01:55:09;3.08;;;1.67;;
66212;SDS011;53015;50.046;8.238;2023-03-23T01:57:35;3.05;;;1.42;;
66212;SDS011;53015;50.046;8.238;2023-03-23T02:00:01;2.72;;;1.60;;
66212;SDS011;53015;50.046;8.238;2023-03-23T02:02:30;4.07;;;1.60;;
66212;SDS011;53015;50.046;8.238;2023-03-23T02:04:57;4.00;;;1.75;;
66212;SDS011;53015;50.046;8.238;2023-03-23T02:07:27;2.95;;;1.40;;
66212;SDS011;53015;50.046;8.238;2023-03-23T02:09:52;5.45;;;1.55;;
66212;SDS011;53015;50.046;8.238;2023-03-23T02:12:18;3.50;;;1.10;;
66212;SDS011;53015;50.046;8.238;2023-03-23T02:14:43;3.22;;;1.08;;
66212;SDS011;53015;50.046;8.238;2023-03-23T02:17:10;1.52;;;1.02;;
66212;SDS011;53015;50.046;8.238;2023-03-23T02:19:52;2.65;;;0.93;;
66212;SDS011;53015;50.046;8.238;2023-03-23T02:31:36;1.10;;;0.60;;
66212;SDS011;53015;50.046;8.238;2023-03-23T02:34:22;1.48;;;0.60;;
66212;SDS011;53015;50.046;8.238;2023-03-23T02:36:53;0.70;;;0.70;;
66212;SDS011;53015;50.046;8.238;2023-03-23T02:39:25;1.85;;;0.60;;
66212;SDS011;53015;50.046;8.238;2023-03-23T02:41:54;1.60;;;0.63;;
66212;SDS011;53015;50.046;8.238;2023-03-23T02:44:24;1.55;;;0.88;;
66212;SDS011;53015;50.046;8.238;2023-03-23T02:46:52;2.33;;;0.68;;
66212;SDS011;53015;50.046;8.238;2023-03-23T02:49:19;1.17;;;0.60;;
66212;SDS011;53015;50.046;8.238;2023-03-23T02:51:46;1.15;;;0.75;;
66212;SDS011;53015;50.046;8.238;2023-03-23T02:54:14;0.57;;;0.57;;
66212;SDS011;53015;50.046;8.238;2023-03-23T02:56:43;0.70;;;0.70;;
66212;SDS011;53015;50.046;8.238;2023-03-23T02:59:09;2.45;;;1.02;;
66212;SDS011;53015;50.046;8.238;2023-03-23T03:04:30;1.38;;;1.02;;
66212;SDS011;53015;50.046;8.238;2023-03-23T03:07:02;1.50;;;1.00;;
66212;SDS011;53015;50.046;8.238;2023-03-23T03:09:38;1.75;;;0.90;;
66212;SDS011;53015;50.046;8.238;2023-03-23T03:12:08;1.73;;;0.82;;
66212;SDS011;53015;50.046;8.238;2023-03-23T03:14:38;2.88;;;0.73;;
66212;SDS011;53015;50.046;8.238;2023-03-23T03:17:10;2.22;;;0.77;;
66212;SDS011;53015;50.046;8.238;2023-03-23T03:19:42;1.42;;;0.73;;
66212;SDS011;53015;50.046;8.238;2023-03-23T03:22:12;1.85;;;0.90;;
66212;SDS011;53015;50.046;8.238;2023-03-23T03:24:38;1.73;;;0.90;;
66212;SDS011;53015;50.046;8.238;2023-03-23T03:27:09;2.33;;;0.82;;
66212;SDS011;53015;50.046;8.238;2023-03-23T03:29:37;1.77;;;1.08;;
66212;SDS011;53015;50.046;8.238;2023-03-23T03:32:05;1.60;;;0.93;;
66212;SDS011;53015;50.046;8.238;2023-03-23T03:34:32;2.10;;;1.00;;
66212;SDS011;53015;50.046;8.238;2023-03-23T03:36:58;3.05;;;0.85;;
66212;SDS011;53015;50.046;8.238;2023-03-23T03:39:25;1.95;;;0.90;;
66212;SDS011;53015;50.046;8.238;2023-03-23T03:41:51;1.83;;;0.70;;
66212;SDS011;53015;50.046;8.238;2023-03-23T03:44:17;1.35;;;0.80;;
66212;SDS011;53015;50.046;8.238;2023-03-23T03:46:42;1.25;;;0.80;;
66212;SDS011;53015;50.046;8.238;2023-03-23T03:49:09;3.33;;;0.95;;
66212;SDS011;53015;50.046;8.238;2023-03-23T03:51:35;2.45;;;0.73;;
66212;SDS011;53015;50.046;8.238;2023-03-23T03:54:01;1.67;;;0.90;;
66212;SDS011;53015;50.046;8.238;2023-03-23T03:56:28;1.10;;;0.80;;
66212;SDS011;53015;50.046;8.238;2023-03-23T03:58:53;0.98;;;0.80;;
66212;SDS011;53015;50.046;8.238;2023-03-23T04:01:21;0.70;;;0.65;;
66212;SDS011;53015;50.046;8.238;2023-03-23T04:03:47;1.42;;;0.80;;
66212;SDS011;53015;50.046;8.238;2023-03-23T04:06:13;2.65;;;0.60;;
66212;SDS011;53015;50.046;8.238;2023-03-23T04:08:40;1.13;;;0.52;;
66212;SDS011;53015;50.046;8.238;2023-03-23T04:11:05;1.08;;;0.82;;
66212;SDS011;53015;50.046;8.238;2023-03-23T04:13:32;0.98;;;0.80;;
66212;SDS011;53015;50.046;8.238;2023-03-23T04:15:57;1.15;;;0.80;;
66212;SDS011;53015;50.046;8.238;2023-03-23T04:18:23;3.40;;;0.70;;
66212;SDS011;53015;50.046;8.238;2023-03-23T04:20:48;1.63;;;0.70;;
66212;SDS011;53015;50.046;8.238;2023-03-23T04:23:14;2.50;;;1.00;;
66212;SDS011;53015;50.046;8.238;2023-03-23T04:25:41;1.10;;;0.70;;
66212;SDS011;53015;50.046;8.238;2023-03-23T04:28:06;2.65;;;0.80;;
66212;SDS011;53015;50.046;8.238;2023-03-23T04:30:33;1.17;;;0.70;;
66212;SDS011;53015;50.046;8.238;2023-03-23T04:32:58;0.80;;;0.70;;
66212;SDS011;53015;50.046;8.238;2023-03-23T04:35:24;3.08;;;1.27;;
66212;SDS011;53015;50.046;8.238;2023-03-23T04:37:49;0.73;;;0.60;;
66212;SDS011;53015;50.046;8.238;2023-03-23T04:40:15;1.83;;;0.80;;
66212;SDS011;53015;50.046;8.238;2023-03-23T04:42:42;1.35;;;0.80;;
66212;SDS011;53015;50.046;8.238;2023-03-23T04:45:08;2.42;;;0.60;;
66212;SDS011;53015;50.046;8.238;2023-03-23T04:47:35;0.80;;;0.80;;
66212;SDS011;53015;50.046;8.238;2023-03-23T04:50:02;1.40;;;0.80;;
66212;SDS011;53015;50.046;8.238;2023-03-23T04:52:28;2.58;;;0.73;;
66212;SDS011;53015;50.046;8.238;2023-03-23T04:54:54;0.60;;;0.60;;
66212;SDS011;53015;50.046;8.238;2023-03-23T04:57:19;1.67;;;1.00;;
66212;SDS011;53015;50.046;8.238;2023-03-23T04:59:45;1.42;;;0.70;;
66212;SDS011;53015;50.046;8.238;2023-03-23T05:02:10;1.20;;;0.90;;
66212;SDS011;53015;50.046;8.238;2023-03-23T05:04:37;1.60;;;1.00;;
66212;SDS011;53015;50.046;8.238;2023-03-23T05:07:02;1.52;;;0.80;;
66212;SDS011;53015;50.046;8.238;2023-03-23T05:09:28;0.75;;;0.70;;
66212;SDS011;53015;50.046;8.238;2023-03-23T05:11:53;1.67;;;1.00;;
66212;SDS011;53015;50.046;8.238;2023-03-23T05:14:19;1.60;;;0.90;;
66212;SDS011;53015;50.046;8.238;2023-03-23T05:16:44;1.40;;;0.82;;
66212;SDS011;53015;50.046;8.238;2023-03-23T05:19:09;2.75;;;0.70;;
66212;SDS011;53015;50.046;8.238;2023-03-23T05:21:36;1.20;;;0.80;;
66212;SDS011;53015;50.046;8.238;2023-03-23T05:24:01;1.90;;;0.98;;
66212;SDS011;53015;50.046;8.238;2023-03-23T05:26:27;1.98;;;1.00;;
66212;SDS011;53015;50.046;8.238;2023-03-23T05:28:52;0.95;;;0.85;;
66212;SDS011;53015;50.046;8.238;2023-03-23T05:31:18;2.42;;;0.80;;
66212;SDS011;53015;50.046;8.238;2023-03-23T05:33:43;1.20;;;0.77;;
66212;SDS011;53015;50.046;8.238;2023-03-23T05:36:09;1.63;;;0.90;;
66212;SDS011;53015;50.046;8.238;2023-03-23T05:38:35;3.33;;;0.90;;
66212;SDS011;53015;50.046;8.238;2023-03-23T05:41:01;1.10;;;0.90;;
66212;SDS011;53015;50.046;8.238;2023-03-23T05:43:26;2.05;;;1.00;;
66212;SDS011;53015;50.046;8.238;2023-03-23T05:45:52;1.48;;;0.82;;
66212;SDS011;53015;50.046;8.238;2023-03-23T05:48:17;1.90;;;1.08;;
66212;SDS011;53015;50.046;8.238;2023-03-23T05:50:43;0.85;;;0.70;;
66212;SDS011;53015;50.046;8.238;2023-03-23T05:53:08;2.70;;;0.77;;
66212;SDS011;53015;50.046;8.238;2023-03-23T05:55:34;0.95;;;0.73;;
66212;SDS011;53015;50.046;8.238;2023-03-23T05:58:00;1.73;;;0.88;;
66212;SDS011;53015;50.046;8.238;2023-03-23T06:00:25;0.80;;;0.68;;
66212;SDS011;53015;50.046;8.238;2023-03-23T06:02:54;1.98;;;0.90;;
66212;SDS011;53015;50.046;8.238;2023-03-23T06:05:20;1.73;;;0.95;;
66212;SDS011;53015;50.046;8.238;2023-03-23T06:07:45;1.55;;;0.95;;
66212;SDS011;53015;50.046;8.238;2023-03-23T06:10:11;1.70;;;0.98;;
66212;SDS011;53015;50.046;8.238;2023-03-23T06:12:37;2.85;;;1.10;;
66212;SDS011;53015;50.046;8.238;2023-03-23T06:15:04;2.20;;;1.17;;
66212;SDS011;53015;50.046;8.238;2023-03-23T06:17:31;2.47;;;1.08;;
66212;SDS011;53015;50.046;8.238;2023-03-23T06:19:56;1.00;;;0.90;;
66212;SDS011;53015;50.046;8.238;2023-03-23T06:22:22;2.67;;;1.15;;
66212;SDS011;53015;50.046;8.238;2023-03-23T06:24:47;3.42;;;1.02;;
66212;SDS011;53015;50.046;8.238;2023-03-23T06:27:13;1.60;;;1.13;;
66212;SDS011;53015;50.046;8.238;2023-03-23T06:29:39;1.85;;;0.73;;
66212;SDS011;53015;50.046;8.238;2023-03-23T06:32:05;0.95;;;0.90;;
66212;SDS011;53015;50.046;8.238;2023-03-23T06:34:31;1.33;;;0.80;;
66212;SDS011;53015;50.046;8.238;2023-03-23T06:36:57;2.17;;;0.90;;
66212;SDS011;53015;50.046;8.238;2023-03-23T06:39:22;2.00;;;0.90;;
66212;SDS011;53015;50.046;8.238;2023-03-23T06:41:48;0.80;;;0.80;;
66212;SDS011;53015;50.046;8.238;2023-03-23T06:44:14;1.52;;;0.80;;
66212;SDS011;53015;50.046;8.238;2023-03-23T06:46:40;1.60;;;0.80;;
66212;SDS011;53015;50.046;8.238;2023-03-23T06:49:07;2.65;;;1.00;;
66212;SDS011;53015;50.046;8.238;2023-03-23T06:51:33;1.20;;;1.00;;
66212;SDS011;53015;50.046;8.238;2023-03-23T06:53:58;2.45;;;1.05;;
66212;SDS011;53015;50.046;8.238;2023-03-23T06:56:24;2.33;;;0.90;;
66212;SDS011;53015;50.046;8.238;2023-03-23T06:58:50;1.10;;;0.88;;
66212;SDS011;53015;50.046;8.238;2023-03-23T07:01:16;1.40;;;0.90;;
66212;SDS011;53015;50.046;8.238;2023-03-23T07:03:42;1.85;;;1.25;;
66212;SDS011;53015;50.046;8.238;2023-03-23T07:06:08;2.00;;;0.98;;
66212;SDS011;53015;50.046;8.238;2023-03-23T07:08:34;1.40;;;0.90;;
66212;SDS011;53015;50.046;8.238;2023-03-23T07:11:00;2.63;;;1.35;;
66212;SDS011;53015;50.046;8.238;2023-03-23T07:13:25;1.25;;;1.05;;
66212;SDS011;53015;50.046;8.238;2023-03-23T07:15:51;3.55;;;1.65;;
66212;SDS011;53015;50.046;8.238;2023-03-23T07:18:17;2.15;;;1.30;;
66212;SDS011;53015;50.046;8.238;2023-03-23T07:20:46;2.83;;;1.55;;
66212;SDS011;53015;50.046;8.238;2023-03-23T07:23:12;1.90;;;1.10;;
66212;SDS011;53015;50.046;8.238;2023-03-23T07:25:37;1.83;;;1.30;;
66212;SDS011;53015;50.046;8.238;2023-03-23T07:28:03;6.07;;;1.60;;
66212;SDS011;53015;50.046;8.238;2023-03-23T07:30:29;3.60;;;1.38;;
66212;SDS011;53015;50.046;8.238;2023-03-23T07:32:55;2.25;;;1.48;;
66212;SDS011;53015;50.046;8.238;2023-03-23T07:35:20;3.35;;;1.63;;
66212;SDS011;53015;50.046;8.238;2023-03-23T07:37:47;4.22;;;1.40;;
66212;SDS011;53015;50.046;8.238;2023-03-23T07:40:13;4.90;;;2.95;;
66212;SDS011;53015;50.046;8.238;2023-03-23T07:42:39;1.45;;;1.30;;
66212;SDS011;53015;50.046;8.238;2023-03-23T07:45:05;2.88;;;1.40;;
66212;SDS011;53015;50.046;8.238;2023-03-23T07:47:31;2.13;;;1.20;;
66212;SDS011;53015;50.046;8.238;2023-03-23T07:49:56;1.58;;;1.30;;
66212;SDS011;53015;50.046;8.238;2023-03-23T07:52:22;3.50;;;1.27;;
66212;SDS011;53015;50.046;8.238;2023-03-23T07:54:48;1.90;;;1.10;;
66212;SDS011;53015;50.046;8.238;2023-03-23T07:57:13;3.72;;;1.80;;
66212;SDS011;53015;50.046;8.238;2023-03-23T07:59:39;2.97;;;1.02;;
66212;SDS011;53015;50.046;8.238;2023-03-23T08:02:04;1.55;;;1.25;;
66212;SDS011;53015;50.046;8.238;2023-03-23T08:04:30;1.60;;;1.40;;
66212;SDS011;53015;50.046;8.238;2023-03-23T08:06:55;1.85;;;1.42;;
66212;SDS011;53015;50.046;8.238;2023-03-23T08:09:21;3.55;;;1.30;;
66212;SDS011;53015;50.046;8.238;2023-03-23T08:11:47;1.90;;;1.20;;
66212;SDS011;53015;50.046;8.238;2023-03-23T08:14:12;2.80;;;1.52;;
66212;SDS011;53015;50.046;8.238;2023-03-23T08:16:38;2.40;;;1.33;;
66212;SDS011;53015;50.046;8.238;2023-03-23T08:19:03;1.98;;;1.35;;
66212;SDS011;53015;50.046;8.238;2023-03-23T08:21:29;2.05;;;1.50;;
66212;SDS011;53015;50.046;8.238;2023-03-23T08:23:54;1.92;;;1.10;;
66212;SDS011;53015;50.046;8.238;2023-03-23T08:26:20;2.58;;;1.10;;
66212;SDS011;53015;50.046;8.238;2023-03-23T08:28:46;3.58;;;1.60;;
66212;SDS011;53015;50.046;8.238;2023-03-23T08:31:13;2.70;;;1.40;;
66212;SDS011;53015;50.046;8.238;2023-03-23T08:33:39;1.75;;;1.08;;
66212;SDS011;53015;50.046;8.238;2023-03-23T08:36:05;6.05;;;1.35;;
66212;SDS011;53015;50.046;8.238;2023-03-23T08:38:31;4.93;;;1.50;;
66212;SDS011;53015;50.046;8.238;2023-03-23T08:40:57;1.63;;;1.30;;
66212;SDS011;53015;50.046;8.238;2023-03-23T08:43:23;3.20;;;1.50;;
66212;SDS011;53015;50.046;8.238;2023-03-23T08:45:49;2.92;;;1.33;;
66212;SDS011;53015;50.046;8.238;2023-03-23T08:48:15;3.67;;;1.20;;
66212;SDS011;53015;50.046;8.238;2023-03-23T08:50:40;1.15;;;0.93;;
66212;SDS011;53015;50.046;8.238;2023-03-23T08:53:06;2.05;;;1.13;;
66212;SDS011;53015;50.046;8.238;2023-03-23T08:55:31;2.63;;;1.10;;
66212;SDS011;53015;50.046;8.238;2023-03-23T08:57:56;1.25;;;0.90;;
66212;SDS011;53015;50.046;8.238;2023-03-23T09:00:22;1.70;;;1.00;;
66212;SDS011;53015;50.046;8.238;2023-03-23T09:02:49;1.73;;;1.00;;
66212;SDS011;53015;50.046;8.238;2023-03-23T09:05:17;1.60;;;1.08;;
66212;SDS011;53015;50.046;8.238;2023-03-23T09:07:44;0.98;;;0.90;;
66212;SDS011;53015;50.046;8.238;2023-03-23T09:10:12;1.27;;;1.00;;
66212;SDS011;53015;50.046;8.238;2023-03-23T09:12:38;1.23;;;0.70;;
66212;SDS011;53015;50.046;8.238;2023-03-23T09:15:04;1.98;;;0.77;;
66212;SDS011;53015;50.046;8.238;2023-03-23T09:17:32;2.75;;;0.95;;
66212;SDS011;53015;50.046;8.238;2023-03-23T09:19:58;0.90;;;0.82;;
66212;SDS011;53015;50.046;8.238;2023-03-23T09:22:24;0.70;;;0.70;;
66212;SDS011;53015;50.046;8.238;2023-03-23T09:24:49;0.90;;;0.57;;
66212;SDS011;53015;50.046;8.238;2023-03-23T09:27:15;1.23;;;0.50;;
66212;SDS011;53015;50.046;8.238;2023-03-23T09:29:40;1.42;;;0.70;;
66212;SDS011;53015;50.046;8.238;2023-03-23T09:32:06;1.10;;;0.55;;
66212;SDS011;53015;50.046;8.238;2023-03-23T09:34:31;1.40;;;0.40;;
66212;SDS011;53015;50.046;8.238;2023-03-23T09:36:58;0.80;;;0.40;;
66212;SDS011;53015;50.046;8.238;2023-03-23T09:39:23;1.27;;;0.65;;
66212;SDS011;53015;50.046;8.238;2023-03-23T09:42:00;0.73;;;0.60;;
66212;SDS011;53015;50.046;8.238;2023-03-23T09:44:38;1.17;;;0.57;;
66212;SDS011;53015;50.046;8.238;2023-03-23T09:47:14;2.53;;;0.50;;
66212;SDS011;53015;50.046;8.238;2023-03-23T09:49:45;1.38;;;0.40;;
66212;SDS011;53015;50.046;8.238;2023-03-23T09:52:17;5.32;;;0.50;;
66212;SDS011;53015;50.046;8.238;2023-03-23T09:54:44;1.00;;;0.50;;
66212;SDS011;53015;50.046;8.238;2023-03-23T09:57:14;1.45;;;0.60;;
66212;SDS011;53015;50.046;8.238;2023-03-23T09:59:42;1.20;;;0.35;;
66212;SDS011;53015;50.046;8.238;2023-03-23T10:02:13;0.70;;;0.50;;
66212;SDS011;53015;50.046;8.238;2023-03-23T10:04:42;0.68;;;0.40;;
66212;SDS011;53015;50.046;8.238;2023-03-23T10:07:11;0.47;;;0.47;;
66212;SDS011;53015;50.046;8.238;2023-03-23T10:09:39;2.00;;;0.60;;
66212;SDS011;53015;50.046;8.238;2023-03-23T10:12:07;0.55;;;0.50;;
66212;SDS011;53015;50.046;8.238;2023-03-23T10:14:42;1.08;;;0.50;;
66212;SDS011;53015;50.046;8.238;2023-03-23T10:17:14;0.75;;;0.50;;
66212;SDS011;53015;50.046;8.238;2023-03-23T10:19:46;1.45;;;0.43;;
66212;SDS011;53015;50.046;8.238;2023-03-23T10:22:16;0.90;;;0.40;;
66212;SDS011;53015;50.046;8.238;2023-03-23T10:24:49;0.30;;;0.30;;
66212;SDS011;53015;50.046;8.238;2023-03-23T10:27:18;0.85;;;0.63;;
66212;SDS011;53015;50.046;8.238;2023-03-23T10:29:50;0.52;;;0.50;;
66212;SDS011;53015;50.046;8.238;2023-03-23T10:32:21;1.80;;;0.50;;
66212;SDS011;53015;50.046;8.238;2023-03-23T10:35:05;0.22;;;0.22;;
66212;SDS011;53015;50.046;8.238;2023-03-23T10:37:36;0.70;;;0.43;;
66212;SDS011;53015;50.046;8.238;2023-03-23T10:40:05;2.25;;;0.30;;
66212;SDS011;53015;50.046;8.238;2023-03-23T10:42:38;0.85;;;0.40;;
66212;SDS011;53015;50.046;8.238;2023-03-23T10:45:10;0.32;;;0.30;;
66212;SDS011;53015;50.046;8.238;2023-03-23T10:47:41;0.55;;;0.30;;
66212;SDS011;53015;50.046;8.238;2023-03-23T10:50:11;1.00;;;0.50;;
66212;SDS011;53015;50.046;8.238;2023-03-23T10:52:39;0.90;;;0.45;;
66212;SDS011;53015;50.046;8.238;2023-03-23T10:55:08;1.50;;;0.50;;
66212;SDS011;53015;50.046;8.238;2023-03-23T10:57:35;1.27;;;0.60;;
66212;SDS011;53015;50.046;8.238;2023-03-23T11:00:02;2.13;;;0.63;;
66212;SDS011;53015;50.046;8.238;2023-03-23T11:02:30;1.20;;;0.88;;
66212;SDS011;53015;50.046;8.238;2023-03-23T11:04:59;0.60;;;0.50;;
66212;SDS011;53015;50.046;8.238;2023-03-23T11:07:29;2.70;;;0.82;;
66212;SDS011;53015;50.046;8.238;2023-03-23T11:09:57;0.40;;;0.40;;
66212;SDS011;53015;50.046;8.238;2023-03-23T11:12:32;1.25;;;0.65;;
66212;SDS011;53015;50.046;8.238;2023-03-23T11:15:03;1.00;;;0.50;;
66212;SDS011;53015;50.046;8.238;2023-03-23T11:17:39;1.27;;;0.60;;
66212;SDS011;53015;50.046;8.238;2023-03-23T11:20:09;0.57;;;0.40;;
66212;SDS011;53015;50.046;8.238;2023-03-23T11:22:36;0.40;;;0.40;;
66212;SDS011;53015;50.046;8.238;2023-03-23T11:25:03;1.35;;;0.70;;
66212;SDS011;53015;50.046;8.238;2023-03-23T11:27:31;1.60;;;0.50;;
66212;SDS011;53015;50.046;8.238;2023-03-23T11:29:58;0.57;;;0.50;;
66212;SDS011;53015;50.046;8.238;2023-03-23T11:32:27;2.05;;;0.60;;
66212;SDS011;53015;50.046;8.238;2023-03-23T11:34:56;0.65;;;0.43;;
66212;SDS011;53015;50.046;8.238;2023-03-23T11:37:27;0.63;;;0.50;;
66212;SDS011;53015;50.046;8.238;2023-03-23T11:39:55;1.30;;;0.30;;
66212;SDS011;53015;50.046;8.238;2023-03-23T11:42:22;0.80;;;0.50;;
66212;SDS011;53015;50.046;8.238;2023-03-23T11:44:49;0.38;;;0.30;;
66212;SDS011;53015;50.046;8.238;2023-03-23T11:47:17;1.38;;;0.50;;
66212;SDS011;53015;50.046;8.238;2023-03-23T11:49:49;0.40;;;0.40;;
66212;SDS011;53015;50.046;8.238;2023-03-23T11:52:21;0.70;;;0.40;;
66212;SDS011;53015;50.046;8.238;2023-03-23T11:54:52;0.38;;;0.28;;
66212;SDS011;53015;50.046;8.238;2023-03-23T11:57:23;0.65;;;0.20;;
66212;SDS011;53015;50.046;8.238;2023-03-23T11:59:50;2.55;;;0.70;;
66212;SDS011;53015;50.046;8.238;2023-03-23T12:02:21;0.40;;;0.40;;
66212;SDS011;53015;50.046;8.238;2023-03-23T12:05:03;0.70;;;0.60;;
66212;SDS011;53015;50.046;8.238;2023-03-23T12:07:55;2.03;;;0.82;;
66212;SDS011;53015;50.046;8.238;2023-03-23T12:10:29;1.02;;;0.50;;
66212;SDS011;53015;50.046;8.238;2023-03-23T12:13:04;1.35;;;0.50;;
66212;SDS011;53015;50.046;8.238;2023-03-23T12:15:40;0.55;;;0.55;;
66212;SDS011;53015;50.046;8.238;2023-03-23T12:18:14;0.82;;;0.38;;
66212;SDS011;53015;50.046;8.238;2023-03-23T12:20:50;1.88;;;0.50;;
66212;SDS011;53015;50.046;8.238;2023-03-23T12:23:22;0.82;;;0.45;;
66212;SDS011;53015;50.046;8.238;2023-03-23T12:29:08;1.98;;;0.57;;
66212;SDS011;53015;50.046;8.238;2023-03-23T12:31:46;0.40;;;0.40;;
66212;SDS011;53015;50.046;8.238;2023-03-23T12:34:22;0.40;;;0.40;;
66212;SDS011;53015;50.046;8.238;2023-03-23T12:37:01;1.38;;;0.60;;
66212;SDS011;53015;50.046;8.238;2023-03-23T12:42:13;0.77;;;0.40;;
66212;SDS011;53015;50.046;8.238;2023-03-23T12:44:48;1.27;;;0.55;;
66212;SDS011;53015;50.046;8.238;2023-03-23T12:47:23;0.93;;;0.30;;
66212;SDS011;53015;50.046;8.238;2023-03-23T12:49:58;0.32;;;0.30;;
66212;SDS011;53015;50.046;8.238;2023-03-23T12:52:27;2.08;;;0.38;;
66212;SDS011;53015;50.046;8.238;2023-03-23T12:54:58;0.63;;;0.40;;
66212;SDS011;53015;50.046;8.238;2023-03-23T12:57:31;1.42;;;0.57;;
66212;SDS011;53015;50.046;8.238;2023-03-23T13:00:03;0.50;;;0.50;;
66212;SDS011;53015;50.046;8.238;2023-03-23T13:02:34;2.85;;;0.50;;
66212;SDS011;53015;50.046;8.238;2023-03-23T13:05:06;1.08;;;0.45;;
66212;SDS011;53015;50.046;8.238;2023-03-23T13:07:37;1.40;;;0.45;;
66212;SDS011;53015;50.046;8.238;2023-03-23T13:10:12;1.27;;;0.30;;
66212;SDS011;53015;50.046;8.238;2023-03-23T13:12:44;1.75;;;0.60;;
66212;SDS011;53015;50.046;8.238;2023-03-23T13:15:16;0.50;;;0.40;;
66212;SDS011;53015;50.046;8.238;2023-03-23T13:17:53;2.17;;;0.50;;
66212;SDS011;53015;50.046;8.238;2023-03-23T13:23:19;0.35;;;0.22;;
66212;SDS011;53015;50.046;8.238;2023-03-23T13:25:49;0.43;;;0.40;;
66212;SDS011;53015;50.046;8.238;2023-03-23T13:28:19;1.33;;;0.40;;
66212;SDS011;53015;50.046;8.238;2023-03-23T13:30:53;1.02;;;0.50;;
66212;SDS011;53015;50.046;8.238;2023-03-23T13:33:24;2.05;;;0.43;;
66212;SDS011;53015;50.046;8.238;2023-03-23T13:35:50;0.50;;;0.50;;
66212;SDS011;53015;50.046;8.238;2023-03-23T13:38:18;0.70;;;0.40;;
66212;SDS011;53015;50.046;8.238;2023-03-23T13:40:46;0.60;;;0.40;;
66212;SDS011;53015;50.046;8.238;2023-03-23T13:43:12;0.85;;;0.68;;
66212;SDS011;53015;50.046;8.238;2023-03-23T13:45:43;1.15;;;0.52;;
66212;SDS011;53015;50.046;8.238;2023-03-23T13:48:18;1.98;;;0.82;;
66212;SDS011;53015;50.046;8.238;2023-03-23T13:50:50;1.20;;;0.75;;
66212;SDS011;53015;50.046;8.238;2023-03-23T13:53:23;1.00;;;0.50;;
66212;SDS011;53015;50.046;8.238;2023-03-23T13:55:52;2.47;;;0.55;;
66212;SDS011;53015;50.046;8.238;2023-03-23T13:58:30;1.60;;;0.30;;
66212;SDS011;53015;50.046;8.238;2023-03-23T14:01:10;0.80;;;0.40;;
66212;SDS011;53015;50.046;8.238;2023-03-23T14:03:39;2.25;;;0.70;;
66212;SDS011;53015;50.046;8.238;2023-03-23T14:06:10;1.90;;;1.20;;
66212;SDS011;53015;50.046;8.238;2023-03-23T14:08:40;0.75;;;0.75;;
66212;SDS011;53015;50.046;8.238;2023-03-23T14:11:19;0.68;;;0.50;;
66212;SDS011;53015;50.046;8.238;2023-03-23T14:13:50;0.40;;;0.40;;
66212;SDS011;53015;50.046;8.238;2023-03-23T14:16:25;2.92;;;0.70;;
66212;SDS011;53015;50.046;8.238;2023-03-23T14:18:58;2.47;;;1.02;;
66212;SDS011;53015;50.046;8.238;2023-03-23T14:21:32;6.25;;;0.70;;
66212;SDS011;53015;50.046;8.238;2023-03-23T14:24:00;2.05;;;0.43;;
66212;SDS011;53015;50.046;8.238;2023-03-23T14:26:28;2.10;;;0.65;;
66212;SDS011;53015;50.046;8.238;2023-03-23T14:28:58;2.88;;;0.57;;
66212;SDS011;53015;50.046;8.238;2023-03-23T14:31:24;2.35;;;0.55;;
66212;SDS011;53015;50.046;8.238;2023-03-23T14:33:51;2.63;;;0.70;;
66212;SDS011;53015;50.046;8.238;2023-03-23T14:36:19;1.10;;;0.60;;
66212;SDS011;53015;50.046;8.238;2023-03-23T14:38:47;0.98;;;0.50;;
66212;SDS011;53015;50.046;8.238;2023-03-23T14:41:27;1.48;;;0.73;;
66212;SDS011;53015;50.046;8.238;2023-03-23T14:43:54;1.05;;;0.73;;
66212;SDS011;53015;50.046;8.238;2023-03-23T14:46:19;3.33;;;0.95;;
66212;SDS011;53015;50.046;8.238;2023-03-23T14:48:45;0.80;;;0.60;;
66212;SDS011;53015;50.046;8.238;2023-03-23T14:51:15;3.05;;;0.43;;
66212;SDS011;53015;50.046;8.238;2023-03-23T14:56:10;0.90;;;0.63;;
66212;SDS011;53015;50.046;8.238;2023-03-23T14:58:37;0.80;;;0.60;;
66212;SDS011;53015;50.046;8.238;2023-03-23T15:01:09;1.02;;;0.65;;
66212;SDS011;53015;50.046;8.238;2023-03-23T15:03:37;0.73;;;0.63;;
66212;SDS011;53015;50.046;8.238;2023-03-23T15:06:06;1.42;;;0.65;;
66212;SDS011;53015;50.046;8.238;2023-03-23T15:08:38;0.73;;;0.52;;
66212;SDS011;53015;50.046;8.238;2023-03-23T15:11:05;3.67;;;0.70;;
66212;SDS011;53015;50.046;8.238;2023-03-23T15:13:34;0.68;;;0.50;;
66212;SDS011;53015;50.046;8.238;2023-03-23T15:16:02;0.60;;;0.60;;